sensor_id;sensor_type;location;lat;lon;timestamp;pressure;altitude;pressure_sealevel;temperature;humidity
46430;BME280;32131;53.454;-6.180;2023-02-18T01:16:44;101447.47;;;10.04;100.00
46430;BME280;32131;53.454;-6.180;2023-02-18T01:25:49;101454.31;;;10.03;100.00
46430;BME280;32131;53.454;-6.180;2023-02-18T01:32:44;101451.00;;;10.07;100.00
46430;BME280;32131;53.454;-6.180;2023-02-18T01:35:32;101444.00;;;10.03;100.00
46430;BME280;32131;53.454;-6.180;2023-02-18T01:38:48;101445.84;;;10.07;100.00
46430;BME280;32131;53.454;-6.180;2023-02-18T01:48:30;101440.06;;;10.16;100.00
46430;BME280;32131;53.454;-6.180;2023-02-18T01:57:19;101447.19;;;10.25;100.00
46430;BME280;32131;53.454;-6.180;2023-02-18T02:00:07;101441.28;;;10.29;100.00
46430;BME280;32131;53.454;-6.180;2023-02-18T02:03:43;101440.44;;;10.30;100.00
46430;BME280;32131;53.454;-6.180;2023-02-18T02:07:15;101446.63;;;10.35;100.00
46430;BME280;32131;53.454;-6.180;2023-02-18T02:10:54;101454.44;;;10.37;100.00
46430;BME280;32131;53.454;-6.180;2023-02-18T02:17:36;101461.28;;;10.36;100.00
46430;BME280;32131;53.454;-6.180;2023-02-18T02:38:38;101461.69;;;10.50;100.00
46430;BME280;32131;53.454;-6.180;2023-02-18T02:45:17;101445.75;;;10.35;100.00
46430;BME280;32131;53.454;-6.180;2023-02-18T02:55:24;101475.25;;;10.43;100.00
46430;BME280;32131;53.454;-6.180;2023-02-18T02:58:34;101470.09;;;10.43;100.00
46430;BME280;32131;53.454;-6.180;2023-02-18T03:02:33;101482.34;;;10.50;100.00
46430;BME280;32131;53.454;-6.180;2023-02-18T03:05:53;101468.81;;;10.59;100.00
46430;BME280;32131;53.454;-6.180;2023-02-18T03:09:34;101492.03;;;10.58;100.00
46430;BME280;32131;53.454;-6.180;2023-02-18T03:13:01;101486.09;;;10.62;100.00
46430;BME280;32131;53.454;-6.180;2023-02-18T03:16:57;101491.81;;;10.50;100.00
46430;BME280;32131;53.454;-6.180;2023-02-18T03:20:33;101513.25;;;10.47;100.00
46430;BME280;32131;53.454;-6.180;2023-02-18T03:23:54;101504.44;;;10.41;100.00
46430;BME280;32131;53.454;-6.180;2023-02-18T03:30:56;101500.50;;;10.53;100.00
46430;BME280;32131;53.454;-6.180;2023-02-18T03:34:08;101503.13;;;10.55;100.00
46430;BME280;32131;53.454;-6.180;2023-02-18T04:19:10;101512.34;;;9.87;98.36
46430;BME280;32131;53.454;-6.180;2023-02-18T04:56:25;101515.75;;;9.59;97.09
46430;BME280;32131;53.454;-6.180;2023-02-18T05:10:13;101512.97;;;9.53;96.64
46430;BME280;32131;53.454;-6.180;2023-02-18T05:31:18;101509.81;;;9.34;98.28
46430;BME280;32131;53.454;-6.180;2023-02-18T05:33:52;101505.38;;;9.30;98.79
46430;BME280;32131;53.454;-6.180;2023-02-18T05:36:21;101513.91;;;9.29;99.91
46430;BME280;32131;53.454;-6.180;2023-02-18T05:38:49;101500.00;;;9.24;100.00
46430;BME280;32131;53.454;-6.180;2023-02-18T05:41:20;101506.81;;;9.22;100.00
46430;BME280;32131;53.454;-6.180;2023-02-18T05:43:48;101498.06;;;9.17;100.00
46430;BME280;32131;53.454;-6.180;2023-02-18T05:46:34;101512.59;;;9.15;100.00
46430;BME280;32131;53.454;-6.180;2023-02-18T05:49:03;101512.59;;;9.15;100.00
46430;BME280;32131;53.454;-6.180;2023-02-18T05:51:32;101515.03;;;9.11;100.00
46430;BME280;32131;53.454;-6.180;2023-02-18T05:54:00;101516.91;;;9.16;100.00
46430;BME280;32131;53.454;-6.180;2023-02-18T05:56:28;101518.75;;;9.20;100.00
46430;BME280;32131;53.454;-6.180;2023-02-18T05:59:05;101521.34;;;9.20;100.00
46430;BME280;32131;53.454;-6.180;2023-02-18T06:01:39;101512.75;;;9.19;100.00
46430;BME280;32131;53.454;-6.180;2023-02-18T06:04:07;101515.97;;;9.13;100.00
46430;BME280;32131;53.454;-6.180;2023-02-18T06:06:38;101521.97;;;9.12;100.00
46430;BME280;32131;53.454;-6.180;2023-02-18T06:09:16;101518.56;;;9.13;100.00
46430;BME280;32131;53.454;-6.180;2023-02-18T06:11:46;101519.22;;;9.08;100.00
46430;BME280;32131;53.454;-6.180;2023-02-18T06:14:16;101529.53;;;9.08;100.00
46430;BME280;32131;53.454;-6.180;2023-02-18T06:17:09;101518.56;;;9.13;100.00
46430;BME280;32131;53.454;-6.180;2023-02-18T06:19:39;101520.19;;;9.11;100.00
46430;BME280;32131;53.454;-6.180;2023-02-18T06:22:12;101522.78;;;9.11;100.00
46430;BME280;32131;53.454;-6.180;2023-02-18T06:24:46;101514.97;;;9.08;100.00
46430;BME280;32131;53.454;-6.180;2023-02-18T06:27:20;101530.50;;;9.11;100.00
46430;BME280;32131;53.454;-6.180;2023-02-18T06:32:51;101544.03;;;9.30;100.00
46430;BME280;32131;53.454;-6.180;2023-02-18T06:35:22;101539.91;;;9.35;100.00
46430;BME280;32131;53.454;-6.180;2023-02-18T06:37:56;101556.25;;;9.36;100.00
46430;BME280;32131;53.454;-6.180;2023-02-18T06:40:42;101553.94;;;9.43;100.00
46430;BME280;32131;53.454;-6.180;2023-02-18T06:43:20;101550.72;;;9.51;100.00
46430;BME280;32131;53.454;-6.180;2023-02-18T06:45:50;101569.91;;;9.59;100.00
46430;BME280;32131;53.454;-6.180;2023-02-18T06:48:22;101567.22;;;9.56;100.00
46430;BME280;32131;53.454;-6.180;2023-02-18T06:50:53;101567.84;;;9.49;100.00
46430;BME280;32131;53.454;-6.180;2023-02-18T06:53:21;101574.59;;;9.45;100.00
46430;BME280;32131;53.454;-6.180;2023-02-18T06:55:50;101571.88;;;9.40;100.00
46430;BME280;32131;53.454;-6.180;2023-02-18T06:58:18;101584.88;;;9.43;100.00
46430;BME280;32131;53.454;-6.180;2023-02-18T07:00:48;101583.81;;;9.38;100.00
46430;BME280;32131;53.454;-6.180;2023-02-18T07:03:31;101560.22;;;9.26;100.00
46430;BME280;32131;53.454;-6.180;2023-02-18T07:06:07;101575.38;;;9.17;100.00
46430;BME280;32131;53.454;-6.180;2023-02-18T07:08:38;101577.44;;;9.03;100.00
46430;BME280;32131;53.454;-6.180;2023-02-18T07:11:06;101570.28;;;8.94;100.00
46430;BME280;32131;53.454;-6.180;2023-02-18T07:13:34;101577.94;;;8.92;100.00
46430;BME280;32131;53.454;-6.180;2023-02-18T07:16:05;101586.22;;;8.84;100.00
46430;BME280;32131;53.454;-6.180;2023-02-18T07:18:36;101585.00;;;8.74;100.00
46430;BME280;32131;53.454;-6.180;2023-02-18T07:21:04;101599.53;;;8.72;100.00
46430;BME280;32131;53.454;-6.180;2023-02-18T07:23:33;101617.59;;;8.73;100.00
46430;BME280;32131;53.454;-6.180;2023-02-18T07:26:03;101627.09;;;8.74;100.00
46430;BME280;32131;53.454;-6.180;2023-02-18T07:28:32;101630.59;;;8.76;100.00
46430;BME280;32131;53.454;-6.180;2023-02-18T07:31:00;101629.84;;;8.79;100.00
46430;BME280;32131;53.454;-6.180;2023-02-18T07:33:29;101634.09;;;8.78;100.00
46430;BME280;32131;53.454;-6.180;2023-02-18T07:36:00;101645.22;;;8.77;100.00
46430;BME280;32131;53.454;-6.180;2023-02-18T07:38:29;101649.66;;;8.81;100.00
46430;BME280;32131;53.454;-6.180;2023-02-18T07:40:58;101653.03;;;8.79;100.00
46430;BME280;32131;53.454;-6.180;2023-02-18T07:43:26;101657.53;;;8.85;100.00
46430;BME280;32131;53.454;-6.180;2023-02-18T07:45:55;101660.19;;;8.88;100.00
46430;BME280;32131;53.454;-6.180;2023-02-18T07:48:23;101648.25;;;8.90;100.00
46430;BME280;32131;53.454;-6.180;2023-02-18T07:50:55;101653.91;;;9.04;100.00
46430;BME280;32131;53.454;-6.180;2023-02-18T07:53:28;101650.78;;;9.12;100.00
46430;BME280;32131;53.454;-6.180;2023-02-18T07:55:58;101662.25;;;9.21;100.00
46430;BME280;32131;53.454;-6.180;2023-02-18T07:58:39;101653.91;;;9.28;100.00
46430;BME280;32131;53.454;-6.180;2023-02-18T08:01:09;101665.97;;;9.29;100.00
46430;BME280;32131;53.454;-6.180;2023-02-18T08:03:38;101667.81;;;9.32;100.00
46430;BME280;32131;53.454;-6.180;2023-02-18T08:06:19;101669.78;;;9.39;100.00
46430;BME280;32131;53.454;-6.180;2023-02-18T08:08:52;101667.44;;;9.47;100.00
46430;BME280;32131;53.454;-6.180;2023-02-18T08:11:25;101664.09;;;9.49;100.00
46430;BME280;32131;53.454;-6.180;2023-02-18T08:13:53;101665.03;;;9.51;100.00
46430;BME280;32131;53.454;-6.180;2023-02-18T08:16:32;101669.31;;;9.51;100.00
46430;BME280;32131;53.454;-6.180;2023-02-18T08:19:02;101678.81;;;9.52;100.00
46430;BME280;32131;53.454;-6.180;2023-02-18T08:21:34;101683.34;;;9.59;100.00
46430;BME280;32131;53.454;-6.180;2023-02-18T08:24:04;101692.22;;;9.67;100.00
46430;BME280;32131;53.454;-6.180;2023-02-18T08:26:35;101692.38;;;9.72;100.00
46430;BME280;32131;53.454;-6.180;2023-02-18T08:29:25;101698.31;;;9.69;100.00
46430;BME280;32131;53.454;-6.180;2023-02-18T08:31:54;101700.13;;;9.72;100.00
46430;BME280;32131;53.454;-6.180;2023-02-18T08:34:24;101700.31;;;9.78;100.00
46430;BME280;32131;53.454;-6.180;2023-02-18T08:36:53;101710.06;;;9.87;100.00
46430;BME280;32131;53.454;-6.180;2023-02-18T08:39:51;101706.75;;;9.89;100.00
46430;BME280;32131;53.454;-6.180;2023-02-18T08:42:21;101711.19;;;9.95;100.00
46430;BME280;32131;53.454;-6.180;2023-02-18T08:44:51;101727.72;;;10.00;100.00
46430;BME280;32131;53.454;-6.180;2023-02-18T08:47:24;101730.41;;;10.03;100.00
46430;BME280;32131;53.454;-6.180;2023-02-18T08:50:16;101730.50;;;10.06;100.00
46430;BME280;32131;53.454;-6.180;2023-02-18T08:53:06;101739.28;;;10.12;100.00
46430;BME280;32131;53.454;-6.180;2023-02-18T08:55:39;101739.38;;;10.15;100.00
46430;BME280;32131;53.454;-6.180;2023-02-18T08:58:10;101741.25;;;10.19;100.00
46430;BME280;32131;53.454;-6.180;2023-02-18T09:00:51;101743.28;;;10.29;100.00
46430;BME280;32131;53.454;-6.180;2023-02-18T09:03:48;101739.84;;;10.29;100.00
46430;BME280;32131;53.454;-6.180;2023-02-18T09:06:30;101754.53;;;10.31;100.00
46430;BME280;32131;53.454;-6.180;2023-02-18T09:08:59;101751.94;;;10.30;100.00
46430;BME280;32131;53.454;-6.180;2023-02-18T09:11:35;101755.19;;;10.24;100.00
46430;BME280;32131;53.454;-6.180;2023-02-18T09:14:10;101756.25;;;10.31;100.00
46430;BME280;32131;53.454;-6.180;2023-02-18T09:16:47;101748.44;;;10.29;100.00
46430;BME280;32131;53.454;-6.180;2023-02-18T09:19:41;101751.94;;;10.30;100.00
46430;BME280;32131;53.454;-6.180;2023-02-18T09:22:09;101753.84;;;10.35;100.00
46430;BME280;32131;53.454;-6.180;2023-02-18T09:24:42;101751.47;;;10.42;100.00
46430;BME280;32131;53.454;-6.180;2023-02-18T09:27:14;101759.53;;;10.51;100.00
46430;BME280;32131;53.454;-6.180;2023-02-18T09:29:47;101761.00;;;10.72;99.81
46430;BME280;32131;53.454;-6.180;2023-02-18T09:32:17;101757.78;;;10.79;99.20
46430;BME280;32131;53.454;-6.180;2023-02-18T09:35:04;101763.66;;;10.73;98.51
46430;BME280;32131;53.454;-6.180;2023-02-18T09:37:33;101761.63;;;10.63;98.70
46430;BME280;32131;53.454;-6.180;2023-02-18T09:40:01;101769.09;;;10.55;99.35
46430;BME280;32131;53.454;-6.180;2023-02-18T09:42:34;101764.50;;;10.45;99.71
46430;BME280;32131;53.454;-6.180;2023-02-18T09:45:15;101766.97;;;10.42;99.98
46430;BME280;32131;53.454;-6.180;2023-02-18T09:47:44;101772.25;;;10.45;100.00
46430;BME280;32131;53.454;-6.180;2023-02-18T09:50:17;101773.06;;;10.44;100.00
46430;BME280;32131;53.454;-6.180;2023-02-18T09:52:47;101782.66;;;10.48;100.00
46430;BME280;32131;53.454;-6.180;2023-02-18T09:55:34;101772.50;;;10.54;99.92
46430;BME280;32131;53.454;-6.180;2023-02-18T09:58:08;101783.94;;;10.61;99.71
46430;BME280;32131;53.454;-6.180;2023-02-18T10:00:42;101782.38;;;10.66;99.54
46430;BME280;32131;53.454;-6.180;2023-02-18T10:03:25;101778.56;;;10.82;98.82
46430;BME280;32131;53.454;-6.180;2023-02-18T10:05:57;101783.03;;;10.88;98.74
46430;BME280;32131;53.454;-6.180;2023-02-18T10:08:29;101780.72;;;10.95;98.27
46430;BME280;32131;53.454;-6.180;2023-02-18T10:11:00;101783.50;;;11.03;97.64
46430;BME280;32131;53.454;-6.180;2023-02-18T10:13:32;101781.16;;;11.11;97.28
46430;BME280;32131;53.454;-6.180;2023-02-18T10:16:02;101793.34;;;11.15;96.65
46430;BME280;32131;53.454;-6.180;2023-02-18T10:18:31;101784.19;;;11.26;96.07
46430;BME280;32131;53.454;-6.180;2023-02-18T10:21:05;101792.03;;;11.29;95.13
46430;BME280;32131;53.454;-6.180;2023-02-18T10:23:38;101796.09;;;11.21;94.82
46430;BME280;32131;53.454;-6.180;2023-02-18T10:26:11;101789.09;;;11.17;95.20
46430;BME280;32131;53.454;-6.180;2023-02-18T10:28:46;101772.75;;;11.18;95.42
46430;BME280;32131;53.454;-6.180;2023-02-18T10:31:17;101781.63;;;11.26;94.49
46430;BME280;32131;53.454;-6.180;2023-02-18T10:33:53;101777.31;;;11.27;93.62
46430;BME280;32131;53.454;-6.180;2023-02-18T10:36:25;101785.47;;;11.41;93.14
46430;BME280;32131;53.454;-6.180;2023-02-18T10:39:26;101785.09;;;11.59;92.11
46430;BME280;32131;53.454;-6.180;2023-02-18T10:42:09;101783.44;;;11.61;90.16
46430;BME280;32131;53.454;-6.180;2023-02-18T10:44:55;101774.25;;;11.71;90.32
46430;BME280;32131;53.454;-6.180;2023-02-18T10:47:35;101770.44;;;11.90;89.66
46430;BME280;32131;53.454;-6.180;2023-02-18T10:50:12;101768.97;;;12.00;88.22
46430;BME280;32131;53.454;-6.180;2023-02-18T10:52:46;101764.78;;;12.05;87.86
46430;BME280;32131;53.454;-6.180;2023-02-18T10:55:17;101763.50;;;12.22;87.45
46430;BME280;32131;53.454;-6.180;2023-02-18T10:57:47;101767.38;;;12.40;86.65
46430;BME280;32131;53.454;-6.180;2023-02-18T11:00:20;101783.09;;;12.46;86.02
46430;BME280;32131;53.454;-6.180;2023-02-18T11:03:12;101781.84;;;12.30;86.92
46430;BME280;32131;53.454;-6.180;2023-02-18T11:05:44;101777.28;;;12.21;88.03
46430;BME280;32131;53.454;-6.180;2023-02-18T11:08:17;101779.38;;;12.35;88.69
46430;BME280;32131;53.454;-6.180;2023-02-18T11:10:48;101775.00;;;12.32;88.66
46430;BME280;32131;53.454;-6.180;2023-02-18T11:13:23;101774.88;;;12.27;89.46
46430;BME280;32131;53.454;-6.180;2023-02-18T11:15:59;101759.94;;;12.17;89.67
46430;BME280;32131;53.454;-6.180;2023-02-18T11:18:37;101756.56;;;12.21;89.93
46430;BME280;32131;53.454;-6.180;2023-02-18T11:21:19;101756.66;;;12.24;89.89
46430;BME280;32131;53.454;-6.180;2023-02-18T11:23:56;101752.38;;;12.25;89.26
46430;BME280;32131;53.454;-6.180;2023-02-18T11:26:31;101746.44;;;12.31;88.70
46430;BME280;32131;53.454;-6.180;2023-02-18T11:29:06;101748.31;;;12.36;88.25
46430;BME280;32131;53.454;-6.180;2023-02-18T11:31:46;101743.34;;;12.46;88.15
46430;BME280;32131;53.454;-6.180;2023-02-18T11:34:20;101752.38;;;12.25;87.34
46430;BME280;32131;53.454;-6.180;2023-02-18T11:36:53;101742.56;;;12.13;88.01
46430;BME280;32131;53.454;-6.180;2023-02-18T11:39:23;101747.41;;;11.99;88.71
46430;BME280;32131;53.454;-6.180;2023-02-18T11:41:56;101743.13;;;12.01;89.20
46430;BME280;32131;53.454;-6.180;2023-02-18T11:44:36;101740.09;;;11.84;89.66
46430;BME280;32131;53.454;-6.180;2023-02-18T11:47:21;101738.91;;;11.73;90.59
46430;BME280;32131;53.454;-6.180;2023-02-18T11:50:13;101745.28;;;11.86;90.32
46430;BME280;32131;53.454;-6.180;2023-02-18T11:52:47;101750.56;;;11.89;89.29
46430;BME280;32131;53.454;-6.180;2023-02-18T11:55:25;101744.44;;;11.85;89.71
46430;BME280;32131;53.454;-6.180;2023-02-18T11:58:00;101752.53;;;11.98;89.68
46430;BME280;32131;53.454;-6.180;2023-02-18T12:00:38;101754.44;;;12.05;88.77
46430;BME280;32131;53.454;-6.180;2023-02-18T12:03:20;101759.56;;;12.02;88.04
46430;BME280;32131;53.454;-6.180;2023-02-18T12:05:53;101755.75;;;11.90;87.09
46430;BME280;32131;53.454;-6.180;2023-02-18T12:08:23;101746.13;;;11.85;86.92
46430;BME280;32131;53.454;-6.180;2023-02-18T12:11:06;101753.84;;;11.83;86.04
46430;BME280;32131;53.454;-6.180;2023-02-18T12:13:41;101761.72;;;11.86;85.75
46430;BME280;32131;53.454;-6.180;2023-02-18T12:16:20;101773.41;;;12.04;85.11
46430;BME280;32131;53.454;-6.180;2023-02-18T12:19:05;101768.88;;;12.30;84.82
46430;BME280;32131;53.454;-6.180;2023-02-18T12:21:44;101768.66;;;12.57;83.54
46430;BME280;32131;53.454;-6.180;2023-02-18T12:24:30;101775.00;;;12.69;82.62
46430;BME280;32131;53.454;-6.180;2023-02-18T12:27:08;101782.16;;;12.79;81.63
46430;BME280;32131;53.454;-6.180;2023-02-18T12:29:56;101775.88;;;13.09;81.59
46430;BME280;32131;53.454;-6.180;2023-02-18T12:32:37;101766.75;;;13.27;80.88
46430;BME280;32131;53.454;-6.180;2023-02-18T12:35:42;101776.91;;;13.16;80.65
46430;BME280;32131;53.454;-6.180;2023-02-18T12:38:32;101772.03;;;12.92;81.02
46430;BME280;32131;53.454;-6.180;2023-02-18T12:41:18;101770.63;;;12.66;82.08
46430;BME280;32131;53.454;-6.180;2023-02-18T12:43:56;101765.09;;;12.52;83.11
46430;BME280;32131;53.454;-6.180;2023-02-18T12:46:43;101766.88;;;12.53;83.89
46430;BME280;32131;53.454;-6.180;2023-02-18T13:04:32;101747.09;;;13.38;79.23
46430;BME280;32131;53.454;-6.180;2023-02-18T13:05:30;101743.13;;;13.14;78.84
46430;BME280;32131;53.454;-6.180;2023-02-18T13:08:24;101729.41;;;13.20;78.36
46430;BME280;32131;53.454;-6.180;2023-02-18T13:11:16;101726.09;;;13.26;78.23
46430;BME280;32131;53.454;-6.180;2023-02-18T13:13:54;101711.69;;;13.40;77.50
46430;BME280;32131;53.454;-6.180;2023-02-18T13:16:30;101708.25;;;13.41;76.66
46430;BME280;32131;53.454;-6.180;2023-02-18T13:19:17;101719.63;;;13.48;76.56
46430;BME280;32131;53.454;-6.180;2023-02-18T13:21:55;101708.25;;;13.41;76.04
46430;BME280;32131;53.454;-6.180;2023-02-18T13:24:37;101724.66;;;13.40;75.94
46430;BME280;32131;53.454;-6.180;2023-02-18T13:27:17;101718.50;;;13.36;76.11
46430;BME280;32131;53.454;-6.180;2023-02-18T13:29:52;101722.97;;;13.41;76.22
46430;BME280;32131;53.454;-6.180;2023-02-18T13:35:31;101729.41;;;13.18;75.42
46430;BME280;32131;53.454;-6.180;2023-02-18T13:38:27;101732.25;;;12.89;77.28
46430;BME280;32131;53.454;-6.180;2023-02-18T13:41:11;101708.22;;;12.97;78.25
46430;BME280;32131;53.454;-6.180;2023-02-18T13:43:51;101700.78;;;13.14;78.37
46430;BME280;32131;53.454;-6.180;2023-02-18T13:46:23;101687.03;;;13.18;77.76
46430;BME280;32131;53.454;-6.180;2023-02-18T13:49:04;101685.38;;;13.21;77.27
46430;BME280;32131;53.454;-6.180;2023-02-18T13:51:39;101688.94;;;13.28;76.14
46430;BME280;32131;53.454;-6.180;2023-02-18T13:54:17;101689.00;;;13.30;75.10
46430;BME280;32131;53.454;-6.180;2023-02-18T13:57:02;101686.44;;;13.33;75.62
46430;BME280;32131;53.454;-6.180;2023-02-18T13:59:37;101677.53;;;13.18;75.85
46430;BME280;32131;53.454;-6.180;2023-02-18T14:02:31;101686.72;;;13.02;76.68
46430;BME280;32131;53.454;-6.180;2023-02-18T14:05:22;101688.53;;;13.07;77.85
46430;BME280;32131;53.454;-6.180;2023-02-18T14:08:13;101679.22;;;13.16;77.41
46430;BME280;32131;53.454;-6.180;2023-02-18T14:11:40;101674.94;;;13.18;77.58
46430;BME280;32131;53.454;-6.180;2023-02-18T14:14:37;101679.19;;;13.13;77.28
46430;BME280;32131;53.454;-6.180;2023-02-18T14:17:40;101671.78;;;12.90;77.74
46430;BME280;32131;53.454;-6.180;2023-02-18T14:26:51;101675.56;;;13.05;77.32
46430;BME280;32131;53.454;-6.180;2023-02-18T14:29:42;101663.28;;;12.98;77.10
46430;BME280;32131;53.454;-6.180;2023-02-18T14:32:11;101649.56;;;13.02;77.55
46430;BME280;32131;53.454;-6.180;2023-02-18T14:35:19;101646.13;;;13.03;77.83
46430;BME280;32131;53.454;-6.180;2023-02-18T14:38:24;101636.69;;;13.07;78.08
46430;BME280;32131;53.454;-6.180;2023-02-18T14:41:21;101639.31;;;13.08;78.23
46430;BME280;32131;53.454;-6.180;2023-02-18T14:44:24;101642.81;;;13.10;78.00
46430;BME280;32131;53.454;-6.180;2023-02-18T14:47:09;101637.56;;;13.07;77.76
46430;BME280;32131;53.454;-6.180;2023-02-18T14:49:58;101636.66;;;13.05;77.97
46430;BME280;32131;53.454;-6.180;2023-02-18T14:52:53;101644.59;;;13.13;77.35
46430;BME280;32131;53.454;-6.180;2023-02-18T14:55:33;101644.66;;;13.17;76.91
46430;BME280;32131;53.454;-6.180;2023-02-18T14:58:07;101655.84;;;13.13;76.87
46430;BME280;32131;53.454;-6.180;2023-02-18T15:00:55;101654.72;;;13.00;77.06
46430;BME280;32131;53.454;-6.180;2023-02-18T15:03:33;101658.09;;;12.98;77.22
46430;BME280;32131;53.454;-6.180;2023-02-18T15:06:21;101665.47;;;12.78;76.46
46430;BME280;32131;53.454;-6.180;2023-02-18T15:09:14;101663.44;;;12.63;75.70
46430;BME280;32131;53.454;-6.180;2023-02-18T15:12:08;101665.97;;;12.60;75.51
46430;BME280;32131;53.454;-6.180;2023-02-18T15:14:40;101661.94;;;12.74;75.43
46430;BME280;32131;53.454;-6.180;2023-02-18T15:17:17;101668.78;;;12.70;74.78
46430;BME280;32131;53.454;-6.180;2023-02-18T15:20:09;101684.13;;;12.61;73.35
46430;BME280;32131;53.454;-6.180;2023-02-18T15:22:39;101671.97;;;12.58;72.77
46430;BME280;32131;53.454;-6.180;2023-02-18T15:25:15;101668.69;;;12.66;72.81
46430;BME280;32131;53.454;-6.180;2023-02-18T15:27:56;101685.00;;;12.62;72.61
46430;BME280;32131;53.454;-6.180;2023-02-18T15:30:27;101676.53;;;12.69;72.33
46430;BME280;32131;53.454;-6.180;2023-02-18T15:33:19;101682.56;;;12.69;71.97
46430;BME280;32131;53.454;-6.180;2023-02-18T15:35:49;101682.75;;;12.39;72.15
46430;BME280;32131;53.454;-6.180;2023-02-18T15:38:33;101684.16;;;12.24;72.98
46430;BME280;32131;53.454;-6.180;2023-02-18T15:41:28;101665.91;;;12.18;73.51
46430;BME280;32131;53.454;-6.180;2023-02-18T15:44:20;101672.41;;;12.39;73.31
46430;BME280;32131;53.454;-6.180;2023-02-18T15:46:50;101655.09;;;12.78;72.01
46430;BME280;32131;53.454;-6.180;2023-02-18T15:49:23;101652.91;;;12.96;71.14
46430;BME280;32131;53.454;-6.180;2023-02-18T15:51:59;101662.44;;;12.99;71.32
46430;BME280;32131;53.454;-6.180;2023-02-18T15:54:31;101667.44;;;12.89;70.95
46430;BME280;32131;53.454;-6.180;2023-02-18T15:57:02;101670.81;;;12.85;71.16
46430;BME280;32131;53.454;-6.180;2023-02-18T15:59:33;101665.53;;;12.79;71.12
46430;BME280;32131;53.454;-6.180;2023-02-18T16:02:28;101676.53;;;12.69;71.45
46430;BME280;32131;53.454;-6.180;2023-02-18T16:06:27;101666.03;;;12.63;71.57
46430;BME280;32131;53.454;-6.180;2023-02-18T16:10:21;101681.31;;;12.50;71.85
46430;BME280;32131;53.454;-6.180;2023-02-18T16:13:24;101682.13;;;12.49;72.84
46430;BME280;32131;53.454;-6.180;2023-02-18T16:16:34;101690.53;;;12.39;73.20
46430;BME280;32131;53.454;-6.180;2023-02-18T16:23:13;101694.91;;;12.05;74.60
46430;BME280;32131;53.454;-6.180;2023-02-18T16:26:56;101702.78;;;11.76;76.25
46430;BME280;32131;53.454;-6.180;2023-02-18T16:30:17;101692.34;;;11.73;76.89
46430;BME280;32131;53.454;-6.180;2023-02-18T16:32:46;101690.91;;;11.83;77.08
46430;BME280;32131;53.454;-6.180;2023-02-18T16:35:34;101682.50;;;11.93;76.14
46430;BME280;32131;53.454;-6.180;2023-02-18T16:38:27;101700.72;;;11.96;76.14
46430;BME280;32131;53.454;-6.180;2023-02-18T16:41:03;101699.84;;;11.95;75.84
46430;BME280;32131;53.454;-6.180;2023-02-18T16:43:44;101706.44;;;11.84;75.53
46430;BME280;32131;53.454;-6.180;2023-02-18T16:46:14;101725.97;;;11.73;75.84
46430;BME280;32131;53.454;-6.180;2023-02-18T16:48:45;101725.72;;;11.63;76.31
46430;BME280;32131;53.454;-6.180;2023-02-18T16:51:22;101716.94;;;11.57;76.78
46430;BME280;32131;53.454;-6.180;2023-02-18T16:54:07;101713.34;;;11.52;77.16
46430;BME280;32131;53.454;-6.180;2023-02-18T16:56:41;101714.13;;;11.47;77.38
46430;BME280;32131;53.454;-6.180;2023-02-18T16:59:16;101730.50;;;11.48;77.60
46430;BME280;32131;53.454;-6.180;2023-02-18T17:01:52;101731.94;;;11.37;78.13
46430;BME280;32131;53.454;-6.180;2023-02-18T17:04:26;101744.75;;;11.33;78.34
46430;BME280;32131;53.454;-6.180;2023-02-18T17:06:59;101743.94;;;11.35;78.41
46430;BME280;32131;53.454;-6.180;2023-02-18T17:09:31;101749.56;;;11.21;78.73
46430;BME280;32131;53.454;-6.180;2023-02-18T17:12:00;101768.13;;;11.08;79.15
46430;BME280;32131;53.454;-6.180;2023-02-18T17:14:39;101763.44;;;10.94;80.24
46430;BME280;32131;53.454;-6.180;2023-02-18T17:17:11;101760.44;;;10.80;80.61
46430;BME280;32131;53.454;-6.180;2023-02-18T17:19:51;101766.19;;;10.72;81.03
46430;BME280;32131;53.454;-6.180;2023-02-18T17:22:21;101764.34;;;10.67;81.29
46430;BME280;32131;53.454;-6.180;2023-02-18T17:24:53;101772.16;;;10.70;81.68
46430;BME280;32131;53.454;-6.180;2023-02-18T17:27:39;101781.00;;;10.77;81.60
46430;BME280;32131;53.454;-6.180;2023-02-18T17:30:09;101797.44;;;10.79;81.73
46430;BME280;32131;53.454;-6.180;2023-02-18T17:32:55;101802.56;;;10.78;81.81
46430;BME280;32131;53.454;-6.180;2023-02-18T17:35:38;101781.59;;;10.68;81.59
46430;BME280;32131;53.454;-6.180;2023-02-18T17:38:17;101793.63;;;10.68;80.31
46430;BME280;32131;53.454;-6.180;2023-02-18T17:40:58;101788.56;;;10.71;78.23
46430;BME280;32131;53.454;-6.180;2023-02-18T17:43:47;101796.31;;;10.71;76.52
46430;BME280;32131;53.454;-6.180;2023-02-18T17:46:45;101800.41;;;10.64;76.04
46430;BME280;32131;53.454;-6.180;2023-02-18T17:53:18;101817.88;;;10.46;74.79
46430;BME280;32131;53.454;-6.180;2023-02-18T17:56:11;101819.63;;;10.47;75.24
46430;BME280;32131;53.454;-6.180;2023-02-18T17:58:58;101823.00;;;10.44;75.30
46430;BME280;32131;53.454;-6.180;2023-02-18T18:01:55;101833.94;;;10.37;76.05
46430;BME280;32131;53.454;-6.180;2023-02-18T18:04:48;101825.84;;;10.28;76.58
46430;BME280;32131;53.454;-6.180;2023-02-18T18:07:38;101838.59;;;10.23;76.82
46430;BME280;32131;53.454;-6.180;2023-02-18T18:10:48;101842.22;;;10.28;76.78
46430;BME280;32131;53.454;-6.180;2023-02-18T18:13:59;101854.53;;;10.35;77.33
46430;BME280;32131;53.454;-6.180;2023-02-18T18:19:19;101866.69;;;10.38;77.55
46430;BME280;32131;53.454;-6.180;2023-02-18T18:24:03;101862.88;;;10.28;76.45
46430;BME280;32131;53.454;-6.180;2023-02-18T18:26:46;101890.94;;;10.19;75.89
46430;BME280;32131;53.454;-6.180;2023-02-18T18:30:19;101894.72;;;10.04;74.85
46430;BME280;32131;53.454;-6.180;2023-02-18T18:32:56;101882.53;;;10.00;74.44
46430;BME280;32131;53.454;-6.180;2023-02-18T18:35:27;101878.81;;;9.92;74.78